This is the latest recevied weather packets stored in our database for station/object WA9AFM. If no packets are shown the sender has not sent any weather packets the latest 10 day(s).
| Time | Temp. | Humidity | Pressure | Rain* | Wind** | Luminosity | Snow |
|---|---|---|---|---|---|---|---|
| 1777859488 | 22.78° C | 38% | 1006.7 hPa | 0 mm | - | - | - |
| 1777858588 | 23.33° C | 37% | 1006.6 hPa | 0 mm | - | - | - |
| 1777857687 | 23.89° C | 35% | 1006.6 hPa | 0 mm | - | - | - |
| 1777856788 | 23.89° C | 34% | 1006.7 hPa | 0 mm | - | - | - |
| 1777855887 | 24.44° C | 34% | 1006.7 hPa | 0 mm | - | - | - |
| 1777854989 | 25° C | 33% | 1006.8 hPa | 0 mm | - | - | - |
| 1777854088 | 26.11° C | 31% | 1006.8 hPa | 0 mm | - | - | - |
| 1777853187 | 26.67° C | 31% | 1006.9 hPa | 0 mm | - | - | - |
| 1777852288 | 26.67° C | 30% | 1007.1 hPa | 0 mm | - | - | - |
| 1777851388 | 27.22° C | 31% | 1007.1 hPa | 0 mm | - | - | - |
| 1777850488 | 27.78° C | 29% | 1007.2 hPa | 0 mm | - | - | - |
| 1777849587 | 28.33° C | 27% | 1007.2 hPa | 0 mm | - | - | - |
| 1777848688 | 28.89° C | 27% | 1007.3 hPa | 0 mm | - | - | - |
| 1777847788 | 28.89° C | 26% | 1007.3 hPa | 0 mm | - | - | - |
| 1777846887 | 28.89° C | 28% | 1007.5 hPa | 0 mm | - | - | - |
| 1777845988 | 29.44° C | 27% | 1007.7 hPa | 0 mm | - | - | - |
| 1777845087 | 29.44° C | 28% | 1007.8 hPa | 0 mm | - | - | - |
| 1777844188 | 29.44° C | 28% | 1008 hPa | 0 mm | - | - | - |
| 1777843288 | 30° C | 26% | 1008.2 hPa | 0 mm | - | - | - |
| 1777842387 | 29.44° C | 26% | 1008.6 hPa | 0 mm | - | - | - |
| 1777841487 | 29.44° C | 29% | 1008.7 hPa | 0 mm | - | - | - |
| 1777840589 | 30° C | 29% | 1008.9 hPa | 0 mm | - | - | - |
| 1777839688 | 30° C | 28% | 1009.2 hPa | 0 mm | - | - | - |
| 1777838787 | 30° C | 30% | 1009.4 hPa | 0 mm | - | - | - |
| 1777837889 | 29.44° C | 28% | 1009.7 hPa | 0 mm | - | - | - |
* Rain latest hour (hover to see other rain measurements)
** Current wind speed in m/s (hover to see current wind gust speed)